sensor_id;sensor_type;location;lat;lon;timestamp;P1;durP1;ratioP1;P2;durP2;ratioP2
33579;SDS011;19909;43.644;-79.438;2024-02-14T00:00:06;0.25;;;0.20;;
33579;SDS011;19909;43.644;-79.438;2024-02-14T00:02:40;0.55;;;0.10;;
33579;SDS011;19909;43.644;-79.438;2024-02-14T00:05:10;1.05;;;0.30;;
33579;SDS011;19909;43.644;-79.438;2024-02-14T00:07:40;0.60;;;0.20;;
33579;SDS011;19909;43.644;-79.438;2024-02-14T00:10:06;0.22;;;0.20;;
33579;SDS011;19909;43.644;-79.438;2024-02-14T00:12:33;0.30;;;0.20;;
33579;SDS011;19909;43.644;-79.438;2024-02-14T00:15:01;0.60;;;0.20;;
33579;SDS011;19909;43.644;-79.438;2024-02-14T00:17:29;0.20;;;0.15;;
33579;SDS011;19909;43.644;-79.438;2024-02-14T00:19:55;0.52;;;0.30;;
33579;SDS011;19909;43.644;-79.438;2024-02-14T00:22:23;0.80;;;0.35;;
33579;SDS011;19909;43.644;-79.438;2024-02-14T00:24:49;0.25;;;0.25;;
33579;SDS011;19909;43.644;-79.438;2024-02-14T00:27:15;0.65;;;0.20;;
33579;SDS011;19909;43.644;-79.438;2024-02-14T00:29:43;0.20;;;0.20;;
33579;SDS011;19909;43.644;-79.438;2024-02-14T00:32:14;0.45;;;0.30;;
33579;SDS011;19909;43.644;-79.438;2024-02-14T00:34:40;0.43;;;0.20;;
33579;SDS011;19909;43.644;-79.438;2024-02-14T00:37:07;0.90;;;0.22;;
33579;SDS011;19909;43.644;-79.438;2024-02-14T00:39:33;0.45;;;0.30;;
33579;SDS011;19909;43.644;-79.438;2024-02-14T00:41:59;0.30;;;0.28;;
33579;SDS011;19909;43.644;-79.438;2024-02-14T00:44:26;0.60;;;0.30;;
33579;SDS011;19909;43.644;-79.438;2024-02-14T00:46:56;0.30;;;0.20;;
33579;SDS011;19909;43.644;-79.438;2024-02-14T00:49:28;0.70;;;0.32;;
33579;SDS011;19909;43.644;-79.438;2024-02-14T00:51:57;0.52;;;0.38;;
33579;SDS011;19909;43.644;-79.438;2024-02-14T00:54:24;0.63;;;0.55;;
33579;SDS011;19909;43.644;-79.438;2024-02-14T00:56:51;0.50;;;0.22;;
33579;SDS011;19909;43.644;-79.438;2024-02-14T00:59:22;0.47;;;0.20;;
33579;SDS011;19909;43.644;-79.438;2024-02-14T01:01:50;0.47;;;0.20;;
33579;SDS011;19909;43.644;-79.438;2024-02-14T01:04:16;0.70;;;0.40;;
33579;SDS011;19909;43.644;-79.438;2024-02-14T01:06:43;0.80;;;0.28;;
33579;SDS011;19909;43.644;-79.438;2024-02-14T01:09:11;0.55;;;0.28;;
33579;SDS011;19909;43.644;-79.438;2024-02-14T01:11:38;0.80;;;0.32;;
33579;SDS011;19909;43.644;-79.438;2024-02-14T01:14:04;0.57;;;0.40;;
33579;SDS011;19909;43.644;-79.438;2024-02-14T01:16:31;0.50;;;0.40;;
33579;SDS011;19909;43.644;-79.438;2024-02-14T01:18:57;0.43;;;0.30;;
33579;SDS011;19909;43.644;-79.438;2024-02-14T01:21:24;0.98;;;0.60;;
33579;SDS011;19909;43.644;-79.438;2024-02-14T01:23:51;1.08;;;0.60;;
33579;SDS011;19909;43.644;-79.438;2024-02-14T01:26:17;0.88;;;0.40;;
33579;SDS011;19909;43.644;-79.438;2024-02-14T01:28:46;0.95;;;0.40;;
33579;SDS011;19909;43.644;-79.438;2024-02-14T01:31:13;0.40;;;0.30;;
33579;SDS011;19909;43.644;-79.438;2024-02-14T01:33:40;0.50;;;0.40;;
33579;SDS011;19909;43.644;-79.438;2024-02-14T01:36:07;0.57;;;0.40;;
33579;SDS011;19909;43.644;-79.438;2024-02-14T01:38:36;0.80;;;0.40;;
33579;SDS011;19909;43.644;-79.438;2024-02-14T01:41:05;0.80;;;0.70;;
33579;SDS011;19909;43.644;-79.438;2024-02-14T01:43:33;1.92;;;0.70;;
33579;SDS011;19909;43.644;-79.438;2024-02-14T01:46:06;2.35;;;0.80;;
33579;SDS011;19909;43.644;-79.438;2024-02-14T01:48:34;1.52;;;1.15;;
33579;SDS011;19909;43.644;-79.438;2024-02-14T01:51:01;1.10;;;0.80;;
33579;SDS011;19909;43.644;-79.438;2024-02-14T01:53:31;0.70;;;0.63;;
33579;SDS011;19909;43.644;-79.438;2024-02-14T01:55:59;1.55;;;0.70;;
33579;SDS011;19909;43.644;-79.438;2024-02-14T01:58:26;0.98;;;0.65;;
33579;SDS011;19909;43.644;-79.438;2024-02-14T02:00:56;0.95;;;0.70;;
33579;SDS011;19909;43.644;-79.438;2024-02-14T02:03:26;0.80;;;0.50;;
33579;SDS011;19909;43.644;-79.438;2024-02-14T02:05:53;0.93;;;0.57;;
33579;SDS011;19909;43.644;-79.438;2024-02-14T02:08:21;0.80;;;0.50;;
33579;SDS011;19909;43.644;-79.438;2024-02-14T02:10:48;0.50;;;0.50;;
33579;SDS011;19909;43.644;-79.438;2024-02-14T02:13:17;0.43;;;0.43;;
33579;SDS011;19909;43.644;-79.438;2024-02-14T02:15:44;0.80;;;0.50;;
33579;SDS011;19909;43.644;-79.438;2024-02-14T02:18:12;0.40;;;0.30;;
33579;SDS011;19909;43.644;-79.438;2024-02-14T02:20:40;0.45;;;0.40;;
33579;SDS011;19909;43.644;-79.438;2024-02-14T02:23:12;1.00;;;0.40;;
33579;SDS011;19909;43.644;-79.438;2024-02-14T02:25:44;0.73;;;0.38;;
33579;SDS011;19909;43.644;-79.438;2024-02-14T02:28:10;0.90;;;0.40;;
33579;SDS011;19909;43.644;-79.438;2024-02-14T02:30:42;0.73;;;0.38;;
33579;SDS011;19909;43.644;-79.438;2024-02-14T02:33:12;0.77;;;0.45;;
33579;SDS011;19909;43.644;-79.438;2024-02-14T02:35:40;0.73;;;0.57;;
33579;SDS011;19909;43.644;-79.438;2024-02-14T02:38:10;0.88;;;0.60;;
33579;SDS011;19909;43.644;-79.438;2024-02-14T02:40:37;0.73;;;0.60;;
33579;SDS011;19909;43.644;-79.438;2024-02-14T02:43:04;1.63;;;0.90;;
33579;SDS011;19909;43.644;-79.438;2024-02-14T02:45:31;0.95;;;0.60;;
33579;SDS011;19909;43.644;-79.438;2024-02-14T02:47:57;1.02;;;0.60;;
33579;SDS011;19909;43.644;-79.438;2024-02-14T02:50:26;1.88;;;0.70;;
33579;SDS011;19909;43.644;-79.438;2024-02-14T02:52:53;1.02;;;0.80;;
33579;SDS011;19909;43.644;-79.438;2024-02-14T02:55:20;1.05;;;0.70;;
33579;SDS011;19909;43.644;-79.438;2024-02-14T02:57:48;1.15;;;0.70;;
33579;SDS011;19909;43.644;-79.438;2024-02-14T03:00:18;0.63;;;0.40;;
33579;SDS011;19909;43.644;-79.438;2024-02-14T03:02:48;0.60;;;0.50;;
33579;SDS011;19909;43.644;-79.438;2024-02-14T03:05:14;1.38;;;0.70;;
33579;SDS011;19909;43.644;-79.438;2024-02-14T03:07:44;1.30;;;1.00;;
33579;SDS011;19909;43.644;-79.438;2024-02-14T03:10:11;2.28;;;1.35;;
33579;SDS011;19909;43.644;-79.438;2024-02-14T03:12:39;3.03;;;2.05;;
33579;SDS011;19909;43.644;-79.438;2024-02-14T03:15:05;5.25;;;2.42;;
33579;SDS011;19909;43.644;-79.438;2024-02-14T03:17:35;5.55;;;3.17;;
33579;SDS011;19909;43.644;-79.438;2024-02-14T03:20:03;5.22;;;3.38;;
33579;SDS011;19909;43.644;-79.438;2024-02-14T03:22:36;5.05;;;2.88;;
33579;SDS011;19909;43.644;-79.438;2024-02-14T03:25:03;5.22;;;3.50;;
33579;SDS011;19909;43.644;-79.438;2024-02-14T03:27:29;3.95;;;2.47;;
33579;SDS011;19909;43.644;-79.438;2024-02-14T03:29:57;3.88;;;2.60;;
33579;SDS011;19909;43.644;-79.438;2024-02-14T03:32:26;6.30;;;2.35;;
33579;SDS011;19909;43.644;-79.438;2024-02-14T03:34:54;2.90;;;2.22;;
33579;SDS011;19909;43.644;-79.438;2024-02-14T03:37:20;2.65;;;2.00;;
33579;SDS011;19909;43.644;-79.438;2024-02-14T03:39:46;2.63;;;1.70;;
33579;SDS011;19909;43.644;-79.438;2024-02-14T03:42:13;2.78;;;1.90;;
33579;SDS011;19909;43.644;-79.438;2024-02-14T03:44:42;3.17;;;1.90;;
33579;SDS011;19909;43.644;-79.438;2024-02-14T03:47:09;2.55;;;1.95;;
33579;SDS011;19909;43.644;-79.438;2024-02-14T03:49:36;3.85;;;1.83;;
33579;SDS011;19909;43.644;-79.438;2024-02-14T03:52:02;4.32;;;2.00;;
33579;SDS011;19909;43.644;-79.438;2024-02-14T03:54:37;2.78;;;1.95;;
33579;SDS011;19909;43.644;-79.438;2024-02-14T03:57:05;2.70;;;1.88;;
33579;SDS011;19909;43.644;-79.438;2024-02-14T03:59:37;2.58;;;1.65;;
33579;SDS011;19909;43.644;-79.438;2024-02-14T04:02:06;2.20;;;1.38;;
33579;SDS011;19909;43.644;-79.438;2024-02-14T04:04:36;2.70;;;2.00;;
33579;SDS011;19909;43.644;-79.438;2024-02-14T04:07:04;2.47;;;1.80;;
33579;SDS011;19909;43.644;-79.438;2024-02-14T04:09:32;1.65;;;1.10;;
33579;SDS011;19909;43.644;-79.438;2024-02-14T04:11:59;1.75;;;1.33;;
33579;SDS011;19909;43.644;-79.438;2024-02-14T04:14:25;2.38;;;1.33;;
33579;SDS011;19909;43.644;-79.438;2024-02-14T04:16:51;1.60;;;1.15;;
33579;SDS011;19909;43.644;-79.438;2024-02-14T04:19:18;1.60;;;1.10;;
33579;SDS011;19909;43.644;-79.438;2024-02-14T04:21:45;1.67;;;1.00;;
33579;SDS011;19909;43.644;-79.438;2024-02-14T04:24:11;1.45;;;1.00;;
33579;SDS011;19909;43.644;-79.438;2024-02-14T04:26:38;1.60;;;0.85;;
33579;SDS011;19909;43.644;-79.438;2024-02-14T04:29:04;1.95;;;1.10;;
33579;SDS011;19909;43.644;-79.438;2024-02-14T04:31:30;1.40;;;1.00;;
33579;SDS011;19909;43.644;-79.438;2024-02-14T04:33:57;1.42;;;0.95;;
33579;SDS011;19909;43.644;-79.438;2024-02-14T04:36:24;1.05;;;0.80;;
33579;SDS011;19909;43.644;-79.438;2024-02-14T04:38:50;1.75;;;1.08;;
33579;SDS011;19909;43.644;-79.438;2024-02-14T04:41:21;1.13;;;1.00;;
33579;SDS011;19909;43.644;-79.438;2024-02-14T04:43:48;1.63;;;0.75;;
33579;SDS011;19909;43.644;-79.438;2024-02-14T04:46:14;0.82;;;0.60;;
33579;SDS011;19909;43.644;-79.438;2024-02-14T04:48:40;1.33;;;0.70;;
33579;SDS011;19909;43.644;-79.438;2024-02-14T04:51:07;0.88;;;0.60;;
33579;SDS011;19909;43.644;-79.438;2024-02-14T04:53:33;1.35;;;0.90;;
33579;SDS011;19909;43.644;-79.438;2024-02-14T04:56:00;0.88;;;0.60;;
33579;SDS011;19909;43.644;-79.438;2024-02-14T04:58:27;1.02;;;0.52;;
33579;SDS011;19909;43.644;-79.438;2024-02-14T05:00:53;0.93;;;0.57;;
33579;SDS011;19909;43.644;-79.438;2024-02-14T05:03:20;0.75;;;0.60;;
33579;SDS011;19909;43.644;-79.438;2024-02-14T05:05:46;1.55;;;0.63;;
33579;SDS011;19909;43.644;-79.438;2024-02-14T05:08:12;1.10;;;0.45;;
33579;SDS011;19909;43.644;-79.438;2024-02-14T05:10:39;0.68;;;0.50;;
33579;SDS011;19909;43.644;-79.438;2024-02-14T05:13:05;1.20;;;0.65;;
33579;SDS011;19909;43.644;-79.438;2024-02-14T05:15:31;0.70;;;0.50;;
33579;SDS011;19909;43.644;-79.438;2024-02-14T05:18:00;0.85;;;0.40;;
33579;SDS011;19909;43.644;-79.438;2024-02-14T05:20:26;0.77;;;0.40;;
33579;SDS011;19909;43.644;-79.438;2024-02-14T05:22:53;1.02;;;0.70;;
33579;SDS011;19909;43.644;-79.438;2024-02-14T05:25:20;0.93;;;0.55;;
33579;SDS011;19909;43.644;-79.438;2024-02-14T05:27:46;0.43;;;0.35;;
33579;SDS011;19909;43.644;-79.438;2024-02-14T05:30:14;0.80;;;0.47;;
33579;SDS011;19909;43.644;-79.438;2024-02-14T05:32:40;1.20;;;0.43;;
33579;SDS011;19909;43.644;-79.438;2024-02-14T05:35:06;0.57;;;0.35;;
33579;SDS011;19909;43.644;-79.438;2024-02-14T05:37:33;0.45;;;0.43;;
33579;SDS011;19909;43.644;-79.438;2024-02-14T05:39:59;0.38;;;0.20;;
33579;SDS011;19909;43.644;-79.438;2024-02-14T05:42:25;0.40;;;0.30;;
33579;SDS011;19909;43.644;-79.438;2024-02-14T05:44:52;0.40;;;0.20;;
33579;SDS011;19909;43.644;-79.438;2024-02-14T05:47:18;0.75;;;0.57;;
33579;SDS011;19909;43.644;-79.438;2024-02-14T05:49:45;0.60;;;0.38;;
33579;SDS011;19909;43.644;-79.438;2024-02-14T05:52:11;0.43;;;0.30;;
33579;SDS011;19909;43.644;-79.438;2024-02-14T05:54:38;0.43;;;0.30;;
33579;SDS011;19909;43.644;-79.438;2024-02-14T05:57:04;0.38;;;0.28;;
33579;SDS011;19909;43.644;-79.438;2024-02-14T05:59:30;0.55;;;0.30;;
33579;SDS011;19909;43.644;-79.438;2024-02-14T06:01:57;0.75;;;0.30;;
33579;SDS011;19909;43.644;-79.438;2024-02-14T06:04:23;0.77;;;0.30;;
33579;SDS011;19909;43.644;-79.438;2024-02-14T06:06:49;0.20;;;0.20;;
33579;SDS011;19909;43.644;-79.438;2024-02-14T06:09:16;1.10;;;0.40;;
33579;SDS011;19909;43.644;-79.438;2024-02-14T06:11:42;0.75;;;0.30;;
33579;SDS011;19909;43.644;-79.438;2024-02-14T06:14:09;0.68;;;0.30;;
33579;SDS011;19909;43.644;-79.438;2024-02-14T06:16:35;0.93;;;0.22;;
33579;SDS011;19909;43.644;-79.438;2024-02-14T06:19:01;0.10;;;0.10;;
33579;SDS011;19909;43.644;-79.438;2024-02-14T06:21:31;1.50;;;0.20;;
33579;SDS011;19909;43.644;-79.438;2024-02-14T06:23:59;1.95;;;0.10;;
33579;SDS011;19909;43.644;-79.438;2024-02-14T06:26:26;0.30;;;0.15;;
33579;SDS011;19909;43.644;-79.438;2024-02-14T06:28:52;0.47;;;0.35;;
33579;SDS011;19909;43.644;-79.438;2024-02-14T06:31:20;0.20;;;0.20;;
33579;SDS011;19909;43.644;-79.438;2024-02-14T06:33:47;0.32;;;0.25;;
33579;SDS011;19909;43.644;-79.438;2024-02-14T06:36:13;0.30;;;0.20;;
33579;SDS011;19909;43.644;-79.438;2024-02-14T06:38:40;0.30;;;0.20;;
33579;SDS011;19909;43.644;-79.438;2024-02-14T06:41:07;0.43;;;0.25;;
33579;SDS011;19909;43.644;-79.438;2024-02-14T06:43:33;0.30;;;0.10;;
33579;SDS011;19909;43.644;-79.438;2024-02-14T06:45:59;0.20;;;0.10;;
33579;SDS011;19909;43.644;-79.438;2024-02-14T06:48:25;0.57;;;0.30;;
33579;SDS011;19909;43.644;-79.438;2024-02-14T06:50:52;0.30;;;0.10;;
33579;SDS011;19909;43.644;-79.438;2024-02-14T06:53:18;0.32;;;0.10;;
33579;SDS011;19909;43.644;-79.438;2024-02-14T06:55:45;0.82;;;0.10;;
33579;SDS011;19909;43.644;-79.438;2024-02-14T06:58:11;0.20;;;0.10;;
33579;SDS011;19909;43.644;-79.438;2024-02-14T07:00:37;0.30;;;0.10;;
33579;SDS011;19909;43.644;-79.438;2024-02-14T07:03:04;0.10;;;0.10;;
33579;SDS011;19909;43.644;-79.438;2024-02-14T07:05:31;0.45;;;0.20;;
33579;SDS011;19909;43.644;-79.438;2024-02-14T07:07:58;0.50;;;0.20;;
33579;SDS011;19909;43.644;-79.438;2024-02-14T07:10:24;0.10;;;0.10;;
33579;SDS011;19909;43.644;-79.438;2024-02-14T07:12:51;0.38;;;0.10;;
33579;SDS011;19909;43.644;-79.438;2024-02-14T07:15:17;0.10;;;0.10;;
33579;SDS011;19909;43.644;-79.438;2024-02-14T07:17:44;0.10;;;0.10;;
33579;SDS011;19909;43.644;-79.438;2024-02-14T07:20:11;0.10;;;0.10;;
33579;SDS011;19909;43.644;-79.438;2024-02-14T07:22:37;0.70;;;0.10;;
33579;SDS011;19909;43.644;-79.438;2024-02-14T07:25:03;0.28;;;0.13;;
33579;SDS011;19909;43.644;-79.438;2024-02-14T07:27:30;0.30;;;0.13;;
33579;SDS011;19909;43.644;-79.438;2024-02-14T07:29:56;0.20;;;0.10;;
33579;SDS011;19909;43.644;-79.438;2024-02-14T07:32:22;0.98;;;0.10;;
33579;SDS011;19909;43.644;-79.438;2024-02-14T07:34:48;0.20;;;0.13;;
33579;SDS011;19909;43.644;-79.438;2024-02-14T07:37:15;0.65;;;0.20;;
33579;SDS011;19909;43.644;-79.438;2024-02-14T07:39:43;0.40;;;0.30;;
33579;SDS011;19909;43.644;-79.438;2024-02-14T07:42:11;2.17;;;0.20;;
33579;SDS011;19909;43.644;-79.438;2024-02-14T07:44:37;0.43;;;0.20;;
33579;SDS011;19909;43.644;-79.438;2024-02-14T07:47:04;0.22;;;0.20;;
33579;SDS011;19909;43.644;-79.438;2024-02-14T07:49:30;0.35;;;0.25;;
33579;SDS011;19909;43.644;-79.438;2024-02-14T07:51:56;0.10;;;0.10;;
33579;SDS011;19909;43.644;-79.438;2024-02-14T07:54:23;0.25;;;0.13;;
33579;SDS011;19909;43.644;-79.438;2024-02-14T07:56:49;0.20;;;0.10;;
33579;SDS011;19909;43.644;-79.438;2024-02-14T07:59:15;0.35;;;0.10;;
33579;SDS011;19909;43.644;-79.438;2024-02-14T08:01:42;0.13;;;0.10;;
33579;SDS011;19909;43.644;-79.438;2024-02-14T08:04:09;0.10;;;0.10;;
33579;SDS011;19909;43.644;-79.438;2024-02-14T08:06:35;0.10;;;0.10;;
33579;SDS011;19909;43.644;-79.438;2024-02-14T08:09:02;1.13;;;0.10;;
33579;SDS011;19909;43.644;-79.438;2024-02-14T08:11:31;0.20;;;0.17;;
33579;SDS011;19909;43.644;-79.438;2024-02-14T08:13:58;0.15;;;0.10;;
33579;SDS011;19909;43.644;-79.438;2024-02-14T08:16:25;0.20;;;0.20;;
33579;SDS011;19909;43.644;-79.438;2024-02-14T08:18:51;0.40;;;0.30;;
33579;SDS011;19909;43.644;-79.438;2024-02-14T08:23:54;0.45;;;0.20;;
33579;SDS011;19909;43.644;-79.438;2024-02-14T08:26:21;0.20;;;0.20;;
33579;SDS011;19909;43.644;-79.438;2024-02-14T08:28:48;0.30;;;0.20;;
33579;SDS011;19909;43.644;-79.438;2024-02-14T08:31:14;0.15;;;0.10;;
33579;SDS011;19909;43.644;-79.438;2024-02-14T08:33:41;0.20;;;0.10;;
33579;SDS011;19909;43.644;-79.438;2024-02-14T08:36:07;0.10;;;0.10;;
33579;SDS011;19909;43.644;-79.438;2024-02-14T08:38:34;0.40;;;0.20;;
33579;SDS011;19909;43.644;-79.438;2024-02-14T08:41:03;0.10;;;0.10;;
33579;SDS011;19909;43.644;-79.438;2024-02-14T08:43:30;0.70;;;0.10;;
33579;SDS011;19909;43.644;-79.438;2024-02-14T08:45:56;0.20;;;0.10;;
33579;SDS011;19909;43.644;-79.438;2024-02-14T08:48:23;0.22;;;0.20;;
33579;SDS011;19909;43.644;-79.438;2024-02-14T08:50:52;0.30;;;0.10;;
33579;SDS011;19909;43.644;-79.438;2024-02-14T08:53:19;0.22;;;0.15;;
33579;SDS011;19909;43.644;-79.438;2024-02-14T08:55:45;1.15;;;0.20;;
33579;SDS011;19909;43.644;-79.438;2024-02-14T08:58:11;0.32;;;0.20;;
33579;SDS011;19909;43.644;-79.438;2024-02-14T09:00:38;0.40;;;0.20;;
33579;SDS011;19909;43.644;-79.438;2024-02-14T09:03:05;0.77;;;0.30;;
33579;SDS011;19909;43.644;-79.438;2024-02-14T09:05:31;1.83;;;0.30;;
33579;SDS011;19909;43.644;-79.438;2024-02-14T09:07:58;0.20;;;0.20;;
33579;SDS011;19909;43.644;-79.438;2024-02-14T09:10:25;1.02;;;0.20;;
33579;SDS011;19909;43.644;-79.438;2024-02-14T09:12:51;0.88;;;0.20;;
33579;SDS011;19909;43.644;-79.438;2024-02-14T09:15:18;0.10;;;0.10;;
33579;SDS011;19909;43.644;-79.438;2024-02-14T09:17:46;0.20;;;0.00;;
33579;SDS011;19909;43.644;-79.438;2024-02-14T09:20:12;0.40;;;0.20;;
33579;SDS011;19909;43.644;-79.438;2024-02-14T09:22:39;0.10;;;0.10;;
33579;SDS011;19909;43.644;-79.438;2024-02-14T09:25:09;0.40;;;0.10;;
33579;SDS011;19909;43.644;-79.438;2024-02-14T09:27:35;0.08;;;0.00;;
33579;SDS011;19909;43.644;-79.438;2024-02-14T09:30:02;0.52;;;0.20;;
33579;SDS011;19909;43.644;-79.438;2024-02-14T09:32:29;0.03;;;0.00;;
33579;SDS011;19909;43.644;-79.438;2024-02-14T09:34:57;0.32;;;0.20;;
33579;SDS011;19909;43.644;-79.438;2024-02-14T09:37:24;0.10;;;0.10;;
33579;SDS011;19909;43.644;-79.438;2024-02-14T09:39:51;0.10;;;0.10;;
33579;SDS011;19909;43.644;-79.438;2024-02-14T09:42:19;0.32;;;0.20;;
33579;SDS011;19909;43.644;-79.438;2024-02-14T09:44:53;0.57;;;0.20;;
33579;SDS011;19909;43.644;-79.438;2024-02-14T09:47:25;0.43;;;0.20;;
33579;SDS011;19909;43.644;-79.438;2024-02-14T09:49:57;1.42;;;0.10;;
33579;SDS011;19909;43.644;-79.438;2024-02-14T09:52:28;0.13;;;0.03;;
33579;SDS011;19909;43.644;-79.438;2024-02-14T09:54:58;0.50;;;0.20;;
33579;SDS011;19909;43.644;-79.438;2024-02-14T09:57:25;0.20;;;0.10;;
33579;SDS011;19909;43.644;-79.438;2024-02-14T09:59:56;0.20;;;0.20;;
33579;SDS011;19909;43.644;-79.438;2024-02-14T10:02:23;0.22;;;0.10;;
33579;SDS011;19909;43.644;-79.438;2024-02-14T10:04:50;0.20;;;0.10;;
33579;SDS011;19909;43.644;-79.438;2024-02-14T10:07:17;0.10;;;0.10;;
33579;SDS011;19909;43.644;-79.438;2024-02-14T10:09:44;0.10;;;0.00;;
33579;SDS011;19909;43.644;-79.438;2024-02-14T10:12:11;0.73;;;0.10;;
33579;SDS011;19909;43.644;-79.438;2024-02-14T10:14:37;0.95;;;0.20;;
33579;SDS011;19909;43.644;-79.438;2024-02-14T10:17:04;0.40;;;0.10;;
33579;SDS011;19909;43.644;-79.438;2024-02-14T10:19:30;0.17;;;0.10;;
33579;SDS011;19909;43.644;-79.438;2024-02-14T10:22:00;0.40;;;0.20;;
33579;SDS011;19909;43.644;-79.438;2024-02-14T10:24:31;1.88;;;0.20;;
33579;SDS011;19909;43.644;-79.438;2024-02-14T10:27:00;1.60;;;0.20;;
33579;SDS011;19909;43.644;-79.438;2024-02-14T10:29:27;0.40;;;0.20;;
33579;SDS011;19909;43.644;-79.438;2024-02-14T10:31:53;0.30;;;0.20;;
33579;SDS011;19909;43.644;-79.438;2024-02-14T10:34:22;0.22;;;0.15;;
33579;SDS011;19909;43.644;-79.438;2024-02-14T10:36:52;0.10;;;0.10;;
33579;SDS011;19909;43.644;-79.438;2024-02-14T10:39:22;0.45;;;0.20;;
33579;SDS011;19909;43.644;-79.438;2024-02-14T10:41:50;0.20;;;0.10;;
33579;SDS011;19909;43.644;-79.438;2024-02-14T10:44:17;0.68;;;0.30;;
33579;SDS011;19909;43.644;-79.438;2024-02-14T10:46:44;0.10;;;0.10;;
33579;SDS011;19909;43.644;-79.438;2024-02-14T10:49:14;0.17;;;0.10;;
33579;SDS011;19909;43.644;-79.438;2024-02-14T10:51:42;0.20;;;0.10;;
33579;SDS011;19909;43.644;-79.438;2024-02-14T10:54:12;0.98;;;0.30;;
33579;SDS011;19909;43.644;-79.438;2024-02-14T10:56:42;0.43;;;0.10;;
33579;SDS011;19909;43.644;-79.438;2024-02-14T10:59:12;0.30;;;0.15;;
33579;SDS011;19909;43.644;-79.438;2024-02-14T11:04:10;0.20;;;0.10;;
33579;SDS011;19909;43.644;-79.438;2024-02-14T11:06:44;0.30;;;0.10;;
33579;SDS011;19909;43.644;-79.438;2024-02-14T11:09:11;0.40;;;0.20;;
33579;SDS011;19909;43.644;-79.438;2024-02-14T11:11:40;0.10;;;0.10;;
33579;SDS011;19909;43.644;-79.438;2024-02-14T11:14:18;0.63;;;0.10;;
33579;SDS011;19909;43.644;-79.438;2024-02-14T11:16:45;0.57;;;0.10;;
33579;SDS011;19909;43.644;-79.438;2024-02-14T11:19:12;0.38;;;0.10;;
33579;SDS011;19909;43.644;-79.438;2024-02-14T11:21:42;0.45;;;0.20;;
33579;SDS011;19909;43.644;-79.438;2024-02-14T11:24:13;0.20;;;0.20;;
33579;SDS011;19909;43.644;-79.438;2024-02-14T11:29:16;0.55;;;0.20;;
33579;SDS011;19909;43.644;-79.438;2024-02-14T11:31:43;0.25;;;0.20;;
33579;SDS011;19909;43.644;-79.438;2024-02-14T11:34:13;0.22;;;0.20;;
33579;SDS011;19909;43.644;-79.438;2024-02-14T11:36:44;0.35;;;0.10;;
33579;SDS011;19909;43.644;-79.438;2024-02-14T11:39:13;0.20;;;0.20;;
33579;SDS011;19909;43.644;-79.438;2024-02-14T11:41:41;0.47;;;0.20;;
33579;SDS011;19909;43.644;-79.438;2024-02-14T11:44:10;0.80;;;0.30;;
33579;SDS011;19909;43.644;-79.438;2024-02-14T11:46:40;0.40;;;0.20;;
33579;SDS011;19909;43.644;-79.438;2024-02-14T11:49:07;0.13;;;0.13;;
33579;SDS011;19909;43.644;-79.438;2024-02-14T11:51:34;0.90;;;0.10;;
33579;SDS011;19909;43.644;-79.438;2024-02-14T11:54:04;0.13;;;0.10;;
33579;SDS011;19909;43.644;-79.438;2024-02-14T11:56:32;0.38;;;0.10;;
33579;SDS011;19909;43.644;-79.438;2024-02-14T11:59:02;0.38;;;0.17;;
33579;SDS011;19909;43.644;-79.438;2024-02-14T12:01:33;0.80;;;0.28;;
33579;SDS011;19909;43.644;-79.438;2024-02-14T12:04:01;1.25;;;0.35;;
33579;SDS011;19909;43.644;-79.438;2024-02-14T12:06:31;0.45;;;0.20;;
33579;SDS011;19909;43.644;-79.438;2024-02-14T12:09:02;0.85;;;0.20;;
33579;SDS011;19909;43.644;-79.438;2024-02-14T12:11:37;0.88;;;0.30;;
33579;SDS011;19909;43.644;-79.438;2024-02-14T12:14:06;0.32;;;0.10;;
33579;SDS011;19909;43.644;-79.438;2024-02-14T12:16:36;0.32;;;0.30;;
33579;SDS011;19909;43.644;-79.438;2024-02-14T12:19:07;1.02;;;0.20;;
33579;SDS011;19909;43.644;-79.438;2024-02-14T12:21:35;0.30;;;0.30;;
33579;SDS011;19909;43.644;-79.438;2024-02-14T12:24:03;0.52;;;0.30;;
33579;SDS011;19909;43.644;-79.438;2024-02-14T12:26:39;0.40;;;0.17;;
33579;SDS011;19909;43.644;-79.438;2024-02-14T12:29:06;1.25;;;0.20;;
33579;SDS011;19909;43.644;-79.438;2024-02-14T12:31:36;3.13;;;0.40;;
33579;SDS011;19909;43.644;-79.438;2024-02-14T12:34:03;4.95;;;0.40;;
33579;SDS011;19909;43.644;-79.438;2024-02-14T12:36:32;2.60;;;0.40;;
33579;SDS011;19909;43.644;-79.438;2024-02-14T12:38:59;7.35;;;1.10;;
33579;SDS011;19909;43.644;-79.438;2024-02-14T12:41:29;8.93;;;1.55;;
33579;SDS011;19909;43.644;-79.438;2024-02-14T12:43:57;7.55;;;1.08;;
33579;SDS011;19909;43.644;-79.438;2024-02-14T12:46:26;3.80;;;0.80;;
33579;SDS011;19909;43.644;-79.438;2024-02-14T12:48:52;4.07;;;0.40;;
33579;SDS011;19909;43.644;-79.438;2024-02-14T12:51:19;1.63;;;0.50;;
33579;SDS011;19909;43.644;-79.438;2024-02-14T12:53:45;1.42;;;0.40;;
33579;SDS011;19909;43.644;-79.438;2024-02-14T12:56:11;3.05;;;0.60;;
33579;SDS011;19909;43.644;-79.438;2024-02-14T12:58:37;5.05;;;0.60;;
33579;SDS011;19909;43.644;-79.438;2024-02-14T13:01:04;4.05;;;0.40;;
33579;SDS011;19909;43.644;-79.438;2024-02-14T13:03:34;3.28;;;0.88;;
33579;SDS011;19909;43.644;-79.438;2024-02-14T13:06:01;3.83;;;0.90;;
33579;SDS011;19909;43.644;-79.438;2024-02-14T13:08:27;3.45;;;0.60;;
33579;SDS011;19909;43.644;-79.438;2024-02-14T13:10:53;1.88;;;0.57;;
33579;SDS011;19909;43.644;-79.438;2024-02-14T13:13:20;3.53;;;0.80;;
33579;SDS011;19909;43.644;-79.438;2024-02-14T13:15:46;1.17;;;0.40;;
33579;SDS011;19909;43.644;-79.438;2024-02-14T13:18:13;1.20;;;0.30;;
33579;SDS011;19909;43.644;-79.438;2024-02-14T13:20:41;2.60;;;0.63;;
33579;SDS011;19909;43.644;-79.438;2024-02-14T13:23:07;3.08;;;0.40;;
33579;SDS011;19909;43.644;-79.438;2024-02-14T13:25:34;2.25;;;0.40;;
33579;SDS011;19909;43.644;-79.438;2024-02-14T13:28:03;2.05;;;0.40;;
33579;SDS011;19909;43.644;-79.438;2024-02-14T13:30:30;0.77;;;0.40;;
33579;SDS011;19909;43.644;-79.438;2024-02-14T13:32:57;1.95;;;0.40;;
33579;SDS011;19909;43.644;-79.438;2024-02-14T13:35:23;2.03;;;0.50;;
33579;SDS011;19909;43.644;-79.438;2024-02-14T13:37:49;0.95;;;0.50;;
33579;SDS011;19909;43.644;-79.438;2024-02-14T13:40:15;2.00;;;0.60;;
33579;SDS011;19909;43.644;-79.438;2024-02-14T13:42:42;0.77;;;0.40;;
33579;SDS011;19909;43.644;-79.438;2024-02-14T13:45:08;1.92;;;0.30;;
33579;SDS011;19909;43.644;-79.438;2024-02-14T13:47:38;0.50;;;0.15;;
33579;SDS011;19909;43.644;-79.438;2024-02-14T13:50:05;0.77;;;0.43;;
33579;SDS011;19909;43.644;-79.438;2024-02-14T13:52:33;0.65;;;0.20;;
33579;SDS011;19909;43.644;-79.438;2024-02-14T13:55:01;0.98;;;0.32;;
33579;SDS011;19909;43.644;-79.438;2024-02-14T13:57:28;1.85;;;0.30;;
33579;SDS011;19909;43.644;-79.438;2024-02-14T13:59:55;1.15;;;0.30;;
33579;SDS011;19909;43.644;-79.438;2024-02-14T14:02:21;1.30;;;0.32;;
33579;SDS011;19909;43.644;-79.438;2024-02-14T14:04:48;1.23;;;0.50;;
33579;SDS011;19909;43.644;-79.438;2024-02-14T14:07:14;0.77;;;0.50;;
33579;SDS011;19909;43.644;-79.438;2024-02-14T14:09:41;0.82;;;0.30;;
33579;SDS011;19909;43.644;-79.438;2024-02-14T14:12:07;0.63;;;0.43;;
33579;SDS011;19909;43.644;-79.438;2024-02-14T14:14:33;0.52;;;0.40;;
33579;SDS011;19909;43.644;-79.438;2024-02-14T14:17:00;0.60;;;0.40;;
33579;SDS011;19909;43.644;-79.438;2024-02-14T14:19:27;0.30;;;0.30;;
33579;SDS011;19909;43.644;-79.438;2024-02-14T14:21:53;1.08;;;0.40;;
33579;SDS011;19909;43.644;-79.438;2024-02-14T14:24:20;1.98;;;0.80;;
33579;SDS011;19909;43.644;-79.438;2024-02-14T14:26:46;1.70;;;0.43;;
33579;SDS011;19909;43.644;-79.438;2024-02-14T14:29:13;1.08;;;0.80;;